Time;durP1;ratioP1;P1;durP2;ratioP2;P2;SDS_P1;SDS_P2;PMS_P1;PMS_P2;Temp;Humidity;BMP_temperature;BMP_pressure;BME280_temperature;BME280_humidity;BME280_pressure;Samples;Min_cycle;Max_cycle;Signal;HPM_P1;HPM_P2
2022/01/14 00:02:05;;;;;;;50.30;24.42;;;6.10;99.90;;;;;;5036935;28;20080;-71
2022/01/14 00:04:31;;;;;;;42.40;23.65;;;6.10;99.90;;;;;;5033354;28;20404;-70
2022/01/14 00:06:57;;;;;;;43.83;23.42;;;6.10;99.90;;;;;;5037195;28;20159;-69
2022/01/14 00:09:23;;;;;;;43.67;23.90;;;6.10;99.90;;;;;;5033199;28;20088;-70
2022/01/14 00:11:54;;;;;;;42.95;22.90;;;6.10;99.90;;;;;;5036630;28;20092;-69
2022/01/14 00:14:36;;;;;;;44.50;23.83;;;6.10;99.90;;;;;;5051214;28;20056;-70
2022/01/14 00:17:04;;;;;;;42.67;23.20;;;6.10;99.90;;;;;;5036514;28;20071;-71
2022/01/14 00:19:29;;;;;;;38.50;23.77;;;6.10;99.90;;;;;;5061985;28;20057;-69
2022/01/14 00:21:55;;;;;;;42.05;24.17;;;6.00;99.90;;;;;;5037959;28;20051;-69
2022/01/14 00:32:17;;;;;;;41.60;22.83;;;6.00;99.90;;;;;;5037437;28;20084;-71
2022/01/14 00:34:43;;;;;;;40.92;21.85;;;6.00;99.90;;;;;;5057211;28;20477;-71
2022/01/14 00:37:08;;;;;;;41.30;22.25;;;6.10;99.90;;;;;;5057231;28;20041;-70
2022/01/14 00:39:34;;;;;;;37.55;21.50;;;6.10;99.90;;;;;;5056909;28;20376;-69
2022/01/14 00:42:00;;;;;;;39.65;22.33;;;6.10;99.90;;;;;;5057127;28;20060;-69
2022/01/14 00:44:25;;;;;;;40.08;21.45;;;6.10;99.90;;;;;;5056751;28;20060;-70
2022/01/14 00:46:51;;;;;;;46.67;22.50;;;6.10;99.90;;;;;;5057244;28;20128;-68
2022/01/14 00:49:19;;;;;;;40.50;22.27;;;6.10;99.90;;;;;;5054149;28;20046;-69
2022/01/14 00:51:44;;;;;;;46.90;23.67;;;6.10;99.90;;;;;;5036923;28;20049;-71
2022/01/14 00:54:11;;;;;;;51.78;22.35;;;6.10;99.90;;;;;;5037107;28;20053;-69
2022/01/14 00:59:15;;;;;;;46.42;21.77;;;6.10;99.90;;;;;;5037291;28;20050;-69
2022/01/14 01:01:48;;;;;;;40.00;21.73;;;6.10;99.90;;;;;;5034882;28;20060;-71
2022/01/14 01:04:15;;;;;;;37.70;21.90;;;6.00;99.90;;;;;;5055799;28;20091;-70
2022/01/14 01:06:41;;;;;;;37.42;21.17;;;6.00;99.90;;;;;;5036100;28;20401;-71
2022/01/14 01:09:11;;;;;;;43.35;22.38;;;6.00;99.90;;;;;;5029871;28;20064;-70
2022/01/14 01:11:47;;;;;;;36.60;20.58;;;6.00;99.90;;;;;;5035797;28;20061;-69
2022/01/14 01:14:17;;;;;;;40.13;21.50;;;6.00;99.90;;;;;;5049589;28;20367;-69
2022/01/14 01:16:43;;;;;;;39.45;21.80;;;6.00;99.90;;;;;;5056575;28;20110;-70
2022/01/14 01:19:09;;;;;;;40.08;21.70;;;6.00;99.90;;;;;;5051231;28;20572;-69
2022/01/14 01:21:35;;;;;;;45.33;22.48;;;6.00;99.90;;;;;;5029120;28;20067;-70
2022/01/14 01:24:01;;;;;;;41.67;22.38;;;6.00;99.90;;;;;;5049561;28;20261;-69
2022/01/14 01:26:39;;;;;;;42.08;20.95;;;6.00;99.90;;;;;;5035570;28;20041;-69
2022/01/14 01:31:43;;;;;;;41.63;21.73;;;5.90;99.90;;;;;;5025002;28;20061;-68
2022/01/14 01:34:23;;;;;;;43.97;21.40;;;5.90;99.90;;;;;;5052217;28;20465;-70
2022/01/14 01:36:52;;;;;;;40.35;21.85;;;5.90;99.90;;;;;;5019015;28;20045;-69
2022/01/14 01:39:24;;;;;;;39.60;20.67;;;5.80;99.90;;;;;;5034942;28;20053;-70
2022/01/14 01:41:52;;;;;;;41.67;21.75;;;5.90;99.90;;;;;;5049338;28;20453;-71
2022/01/14 01:44:20;;;;;;;41.38;21.35;;;5.80;99.90;;;;;;5035059;28;20374;-70
2022/01/14 01:46:47;;;;;;;40.25;21.52;;;5.80;99.90;;;;;;5049466;28;20041;-69
2022/01/14 01:49:16;;;;;;;44.10;21.70;;;5.80;99.90;;;;;;5037029;28;20057;-69
2022/01/14 01:51:44;;;;;;;37.67;21.42;;;5.80;99.90;;;;;;5049694;28;20045;-71
2022/01/14 01:54:10;;;;;;;41.17;22.13;;;6.00;99.90;;;;;;5034847;28;20042;-71
2022/01/14 01:56:36;;;;;;;39.15;21.95;;;5.70;99.90;;;;;;5032657;28;20368;-68
2022/01/14 01:59:03;;;;;;;43.95;21.70;;;5.70;99.90;;;;;;5034873;28;20465;-71
2022/01/14 02:01:29;;;;;;;42.10;22.33;;;5.70;99.90;;;;;;5032795;28;20091;-71
2022/01/14 02:03:55;;;;;;;38.30;21.73;;;5.80;99.90;;;;;;5038611;28;20396;-70
2022/01/14 02:06:22;;;;;;;41.33;21.50;;;5.80;99.90;;;;;;5055943;28;20049;-69
2022/01/14 02:08:48;;;;;;;39.20;22.85;;;5.80;99.90;;;;;;5055486;28;20068;-70
2022/01/14 02:11:14;;;;;;;41.47;21.42;;;5.80;99.90;;;;;;5055412;28;20095;-68
2022/01/14 02:13:41;;;;;;;50.63;22.98;;;5.80;99.90;;;;;;5034703;28;20061;-69
2022/01/14 02:18:40;;;;;;;44.38;22.48;;;5.90;99.90;;;;;;5044598;28;20052;-70
2022/01/14 02:24:06;;;;;;;41.92;22.63;;;5.90;99.90;;;;;;5055433;28;20408;-71
2022/01/14 02:26:33;;;;;;;54.13;23.55;;;5.90;99.90;;;;;;5054640;28;20059;-71
2022/01/14 02:28:58;;;;;;;46.75;22.45;;;5.90;99.90;;;;;;5035525;28;20045;-69
2022/01/14 02:31:24;;;;;;;36.58;22.58;;;5.90;99.90;;;;;;5034602;28;20054;-70
2022/01/14 02:33:50;;;;;;;44.83;23.20;;;5.90;99.90;;;;;;5049012;28;20060;-71
2022/01/14 02:36:16;;;;;;;45.50;22.67;;;5.90;99.90;;;;;;5055182;28;20048;-71
2022/01/14 02:38:43;;;;;;;49.97;23.17;;;5.90;99.90;;;;;;5034851;28;20053;-70
2022/01/14 02:41:09;;;;;;;49.67;24.65;;;5.90;99.90;;;;;;5054830;28;20048;-71
2022/01/14 02:43:35;;;;;;;38.05;23.08;;;5.90;99.90;;;;;;5034702;28;20045;-70
2022/01/14 02:46:01;;;;;;;46.28;23.20;;;6.00;99.90;;;;;;5034465;28;20118;-70
2022/01/14 02:48:29;;;;;;;51.40;22.98;;;6.00;99.90;;;;;;5037950;28;20109;-69
2022/01/14 02:51:07;;;;;;;45.15;22.63;;;6.00;99.90;;;;;;5028460;28;20045;-70
2022/01/14 02:56:06;;;;;;;40.97;22.75;;;6.00;99.90;;;;;;5037348;28;20485;-69
2022/01/14 02:58:34;;;;;;;38.33;22.13;;;6.00;99.90;;;;;;5054658;28;20049;-69
2022/01/14 03:01:05;;;;;;;43.30;22.33;;;6.00;99.90;;;;;;5034064;28;20107;-70
2022/01/14 03:03:32;;;;;;;49.70;23.17;;;6.00;99.90;;;;;;5034498;28;20045;-71
2022/01/14 03:05:59;;;;;;;45.67;23.48;;;6.00;99.90;;;;;;5054448;28;20057;-69
2022/01/14 03:08:25;;;;;;;41.03;23.65;;;6.00;99.90;;;;;;5054333;28;20041;-69
2022/01/14 03:10:57;;;;;;;45.83;22.70;;;6.00;99.90;;;;;;5054497;28;20045;-71
2022/01/14 03:13:23;;;;;;;42.63;23.30;;;6.00;99.90;;;;;;5054177;28;20061;-69
2022/01/14 03:15:49;;;;;;;42.25;22.98;;;6.10;99.90;;;;;;5033776;28;20425;-71
2022/01/14 03:18:21;;;;;;;44.40;23.30;;;6.10;99.90;;;;;;5033335;28;20041;-70
2022/01/14 03:21:03;;;;;;;50.35;24.27;;;6.10;99.90;;;;;;5034391;28;20171;-70
2022/01/14 03:23:30;;;;;;;44.75;24.02;;;6.10;99.90;;;;;;5022183;28;20045;-69
2022/01/14 03:25:59;;;;;;;43.53;22.98;;;6.10;99.90;;;;;;5030184;28;20049;-69
2022/01/14 03:28:25;;;;;;;45.83;24.25;;;6.10;99.90;;;;;;5037235;28;20069;-70
2022/01/14 03:30:53;;;;;;;43.55;24.98;;;6.10;99.90;;;;;;5054841;28;20061;-71
2022/01/14 03:33:20;;;;;;;44.28;23.27;;;6.10;99.90;;;;;;5037641;28;20053;-71
2022/01/14 03:35:47;;;;;;;40.35;23.10;;;6.10;99.90;;;;;;5021111;28;20064;-70
2022/01/14 03:38:13;;;;;;;47.45;23.88;;;6.10;99.90;;;;;;5037993;28;20060;-70
2022/01/14 03:40:38;;;;;;;50.33;23.85;;;6.10;99.90;;;;;;5036903;28;20045;-70
2022/01/14 03:43:04;;;;;;;46.60;23.60;;;6.10;99.90;;;;;;5037227;28;20480;-69
2022/01/14 03:45:30;;;;;;;40.80;23.02;;;6.10;99.90;;;;;;5036988;28;20071;-70
2022/01/14 03:47:56;;;;;;;41.13;22.67;;;6.10;99.90;;;;;;5046016;28;20097;-70
2022/01/14 03:50:21;;;;;;;51.85;23.00;;;6.10;99.90;;;;;;5046056;28;20088;-68
2022/01/14 03:52:47;;;;;;;44.78;22.67;;;6.10;99.90;;;;;;5020980;28;20079;-70
2022/01/14 03:55:13;;;;;;;50.33;23.98;;;6.10;99.90;;;;;;5020555;28;20100;-70
2022/01/14 03:57:38;;;;;;;45.30;23.83;;;6.10;99.90;;;;;;5027018;28;20037;-70
2022/01/14 04:00:05;;;;;;;41.30;23.45;;;6.10;99.90;;;;;;5053714;28;20491;-70
2022/01/14 04:02:30;;;;;;;48.92;24.23;;;6.10;99.90;;;;;;5036881;28;20045;-71
2022/01/14 04:04:56;;;;;;;45.45;23.67;;;6.10;99.90;;;;;;5018420;28;20064;-70
2022/01/14 04:07:21;;;;;;;49.88;23.77;;;6.10;99.90;;;;;;5037463;28;20331;-71
2022/01/14 04:09:47;;;;;;;48.03;23.63;;;6.10;99.90;;;;;;5036059;28;20448;-71
2022/01/14 04:12:19;;;;;;;49.05;23.08;;;6.10;99.90;;;;;;5057633;28;20055;-70
2022/01/14 04:17:10;;;;;;;44.70;23.25;;;6.10;99.90;;;;;;5036833;28;20060;-69
2022/01/14 04:19:36;;;;;;;49.30;23.63;;;6.10;99.90;;;;;;5041583;28;20052;-69
2022/01/14 04:22:02;;;;;;;51.58;23.70;;;6.10;99.90;;;;;;5036698;28;20049;-71
2022/01/14 04:24:28;;;;;;;41.55;22.65;;;6.10;99.90;;;;;;5036377;28;20082;-69
2022/01/14 04:26:53;;;;;;;48.20;24.83;;;6.10;99.90;;;;;;5057550;28;20115;-70
2022/01/14 04:29:19;;;;;;;45.35;24.15;;;6.10;99.90;;;;;;5039635;28;20413;-70
2022/01/14 04:31:45;;;;;;;51.65;23.65;;;6.10;99.90;;;;;;5036714;28;20052;-70
2022/01/14 04:34:10;;;;;;;54.95;23.52;;;6.30;99.90;;;;;;5036757;28;20388;-71
2022/01/14 04:36:36;;;;;;;55.40;24.77;;;6.10;99.90;;;;;;5057765;28;20441;-68
2022/01/14 04:39:03;;;;;;;43.28;23.45;;;6.10;99.90;;;;;;5053460;28;20041;-69
2022/01/14 04:41:28;;;;;;;45.95;23.98;;;6.10;99.90;;;;;;5057398;28;20469;-69
2022/01/14 04:43:54;;;;;;;48.33;23.65;;;6.00;99.90;;;;;;5040328;28;20053;-70
2022/01/14 04:46:48;;;;;;;43.40;23.73;;;6.10;99.90;;;;;;5039589;28;20065;-70
2022/01/14 04:49:14;;;;;;;47.70;24.45;;;6.00;99.90;;;;;;5040921;28;20370;-69
2022/01/14 04:51:40;;;;;;;52.40;25.52;;;6.00;99.90;;;;;;5037015;28;20049;-72
2022/01/14 04:54:05;;;;;;;48.17;26.30;;;6.00;99.90;;;;;;5003468;28;20377;-68
2022/01/14 04:56:33;;;;;;;52.38;25.27;;;6.20;99.90;;;;;;5020222;28;20060;-70
2022/01/14 04:58:58;;;;;;;49.53;25.92;;;5.90;99.90;;;;;;5023793;28;20045;-68
2022/01/14 05:01:24;;;;;;;54.17;27.33;;;5.90;99.90;;;;;;5033856;28;20330;-71
2022/01/14 05:03:49;;;;;;;52.47;26.67;;;5.90;99.90;;;;;;5057992;28;20138;-71
2022/01/14 05:06:15;;;;;;;60.60;27.70;;;5.90;99.90;;;;;;5056772;28;20059;-69
2022/01/14 05:08:40;;;;;;;54.92;27.67;;;5.90;99.90;;;;;;5035582;28;20096;-69
2022/01/14 05:13:41;;;;;;;49.08;27.95;;;5.80;99.90;;;;;;5039359;28;20057;-70
2022/01/14 05:16:06;;;;;;;62.85;28.65;;;5.80;99.90;;;;;;5039247;28;20051;-70
2022/01/14 05:18:32;;;;;;;56.97;28.65;;;5.80;99.90;;;;;;5056748;28;20049;-68
2022/01/14 05:20:57;;;;;;;50.15;27.35;;;5.80;99.90;;;;;;5052974;28;20048;-70
2022/01/14 05:23:24;;;;;;;50.47;27.83;;;5.80;99.90;;;;;;5066567;28;20033;-71
2022/01/14 05:25:49;;;;;;;56.38;28.40;;;5.80;99.90;;;;;;5058871;28;20060;-71
2022/01/14 05:28:15;;;;;;;59.72;27.15;;;5.80;99.90;;;;;;5058699;28;20052;-71
2022/01/14 05:30:41;;;;;;;49.67;28.10;;;5.80;99.90;;;;;;5076703;28;20052;-70
2022/01/14 05:33:07;;;;;;;49.42;27.88;;;5.80;99.90;;;;;;5059002;28;20124;-70
2022/01/14 05:35:32;;;;;;;56.85;28.65;;;5.80;99.90;;;;;;5058922;28;20041;-70
2022/01/14 05:37:58;;;;;;;45.85;27.48;;;5.80;99.90;;;;;;5058812;28;20110;-71
2022/01/14 05:40:26;;;;;;;63.05;29.17;;;5.80;99.90;;;;;;5053100;28;20044;-70
2022/01/14 05:42:52;;;;;;;55.53;27.60;;;5.80;99.90;;;;;;5038356;28;20052;-70
2022/01/14 05:45:17;;;;;;;50.08;28.38;;;5.80;99.90;;;;;;5039043;28;20369;-69
2022/01/14 05:47:43;;;;;;;50.33;27.73;;;5.80;99.90;;;;;;5056160;28;20041;-70
2022/01/14 05:50:15;;;;;;;47.78;27.63;;;5.80;99.90;;;;;;5038470;28;20515;-71
2022/01/14 05:52:41;;;;;;;55.00;27.55;;;5.80;99.90;;;;;;5035418;28;20052;-70
2022/01/14 05:55:09;;;;;;;52.63;28.20;;;5.80;99.90;;;;;;5018723;28;20464;-70
2022/01/14 05:57:37;;;;;;;50.97;27.17;;;5.90;99.90;;;;;;5019054;28;20050;-69
2022/01/14 06:00:11;;;;;;;53.72;27.45;;;5.90;99.90;;;;;;5018419;28;20405;-69
2022/01/14 06:02:37;;;;;;;53.50;27.20;;;5.90;99.90;;;;;;5018923;28;20361;-69
2022/01/14 06:05:03;;;;;;;63.58;25.60;;;5.90;99.90;;;;;;5002404;28;20135;-72
2022/01/14 06:07:29;;;;;;;46.42;28.33;;;5.90;99.90;;;;;;5018088;28;20480;-70
2022/01/14 06:09:54;;;;;;;52.10;27.52;;;6.10;99.90;;;;;;5036259;28;20049;-71
2022/01/14 06:12:20;;;;;;;47.85;27.05;;;5.90;99.90;;;;;;5049740;28;20392;-69
2022/01/14 06:14:46;;;;;;;52.35;25.73;;;5.90;99.90;;;;;;5035426;28;20049;-71
2022/01/14 06:17:11;;;;;;;55.30;27.25;;;5.90;99.90;;;;;;5018230;28;20049;-72
2022/01/14 06:19:37;;;;;;;51.08;26.17;;;6.00;99.90;;;;;;5036527;28;20049;-70
2022/01/14 06:22:03;;;;;;;48.13;26.27;;;6.00;99.90;;;;;;5033021;28;20068;-71
2022/01/14 06:24:28;;;;;;;49.95;26.98;;;6.00;99.90;;;;;;5023527;28;20099;-70
2022/01/14 06:26:54;;;;;;;48.88;26.75;;;6.00;99.90;;;;;;5022627;28;20057;-70
2022/01/14 06:29:19;;;;;;;47.72;25.95;;;6.00;99.90;;;;;;5051928;28;20048;-70
2022/01/14 06:31:45;;;;;;;50.72;26.65;;;6.00;99.90;;;;;;5055842;28;20033;-70
2022/01/14 06:34:12;;;;;;;53.72;27.80;;;6.00;99.90;;;;;;5035982;28;20033;-69
2022/01/14 06:36:37;;;;;;;52.47;25.98;;;6.00;99.90;;;;;;5030912;28;20076;-71
2022/01/14 06:39:03;;;;;;;43.85;25.60;;;6.00;99.90;;;;;;5036009;28;20046;-72
2022/01/14 06:41:29;;;;;;;44.88;25.05;;;6.00;99.90;;;;;;5029026;28;20049;-70
2022/01/14 06:43:54;;;;;;;44.95;26.10;;;6.00;99.90;;;;;;5043549;28;20042;-69
2022/01/14 06:46:20;;;;;;;48.83;25.70;;;6.00;99.90;;;;;;5034881;28;20176;-72
2022/01/14 06:48:45;;;;;;;46.38;24.75;;;6.00;99.90;;;;;;5001603;28;20141;-71
2022/01/14 06:51:15;;;;;;;51.15;25.08;;;6.00;99.90;;;;;;5013853;28;20144;-70
2022/01/14 06:53:41;;;;;;;47.90;25.75;;;6.00;99.90;;;;;;5031063;28;20433;-73
2022/01/14 06:56:07;;;;;;;49.45;25.05;;;6.00;99.90;;;;;;5016550;28;20548;-70
2022/01/14 06:58:32;;;;;;;44.90;24.52;;;6.00;99.90;;;;;;5034986;28;20041;-71
2022/01/14 07:00:58;;;;;;;47.08;25.30;;;6.00;99.90;;;;;;5017264;28;20073;-72
2022/01/14 07:03:24;;;;;;;41.67;24.30;;;6.00;99.90;;;;;;5016530;28;20128;-72
2022/01/14 07:05:49;;;;;;;52.40;24.92;;;6.00;99.90;;;;;;5017660;28;20128;-69
2022/01/14 07:08:15;;;;;;;44.50;23.13;;;6.00;99.90;;;;;;5020083;28;20103;-69
2022/01/14 07:10:40;;;;;;;43.95;24.20;;;6.00;99.90;;;;;;5047341;28;20052;-70
2022/01/14 07:13:06;;;;;;;44.00;25.27;;;6.00;99.90;;;;;;5044603;28;20063;-69
2022/01/14 07:15:32;;;;;;;42.45;23.75;;;6.10;99.90;;;;;;5040816;28;20048;-70
2022/01/14 07:17:57;;;;;;;48.88;23.85;;;6.10;99.90;;;;;;5054558;28;20048;-70
2022/01/14 07:20:23;;;;;;;41.70;23.58;;;6.10;99.90;;;;;;5036198;28;20095;-70
2022/01/14 07:22:49;;;;;;;42.50;22.90;;;6.10;99.90;;;;;;5034579;28;20114;-70
2022/01/14 07:25:15;;;;;;;46.40;23.27;;;6.10;99.90;;;;;;5001506;28;20041;-70
2022/01/14 07:27:41;;;;;;;48.65;22.92;;;6.10;99.90;;;;;;5034372;28;20348;-69
2022/01/14 07:30:08;;;;;;;45.60;22.80;;;6.10;99.90;;;;;;5017710;28;20042;-69
2022/01/14 07:32:34;;;;;;;48.42;22.52;;;6.10;99.90;;;;;;5017519;28;20453;-68
2022/01/14 07:35:01;;;;;;;44.78;23.63;;;6.10;99.90;;;;;;5017340;28;20045;-69
2022/01/14 07:37:27;;;;;;;42.47;22.45;;;6.10;99.90;;;;;;5017455;28;20175;-70
2022/01/14 07:39:52;;;;;;;37.45;20.85;;;6.10;99.90;;;;;;5016813;28;20100;-71
2022/01/14 07:42:18;;;;;;;40.08;21.10;;;6.10;99.90;;;;;;5050765;28;20049;-70
2022/01/14 07:44:44;;;;;;;39.78;21.15;;;6.10;99.90;;;;;;5037428;28;20135;-68
2022/01/14 07:47:09;;;;;;;43.58;21.35;;;6.20;99.90;;;;;;5050606;28;20102;-68
2022/01/14 07:49:35;;;;;;;37.72;21.15;;;6.20;99.90;;;;;;5053771;28;20041;-71
2022/01/14 07:52:01;;;;;;;36.05;20.55;;;6.20;99.90;;;;;;5053951;28;20041;-69
2022/01/14 07:54:26;;;;;;;34.47;19.95;;;6.20;99.90;;;;;;5053793;28;20053;-70
2022/01/14 07:56:54;;;;;;;40.35;20.20;;;6.20;99.90;;;;;;5036054;28;20087;-68
2022/01/14 07:59:22;;;;;;;36.03;19.60;;;6.20;99.90;;;;;;5053812;28;20408;-68
2022/01/14 08:01:50;;;;;;;42.30;20.33;;;6.20;99.90;;;;;;5052942;28;20385;-69
2022/01/14 08:04:18;;;;;;;40.83;19.33;;;6.20;99.90;;;;;;5036073;28;20063;-71
2022/01/14 08:06:48;;;;;;;39.88;19.08;;;6.20;99.90;;;;;;5053687;28;20318;-68
2022/01/14 08:09:14;;;;;;;34.42;17.73;;;6.30;99.90;;;;;;5035700;28;20057;-71
2022/01/14 08:11:41;;;;;;;35.40;18.63;;;6.30;99.90;;;;;;5052488;28;20053;-71
2022/01/14 08:14:06;;;;;;;40.65;18.02;;;6.30;99.90;;;;;;5037808;28;20048;-70
2022/01/14 08:16:32;;;;;;;39.55;18.60;;;6.30;99.90;;;;;;5022394;28;20030;-72
2022/01/14 08:18:58;;;;;;;39.83;18.52;;;6.30;99.90;;;;;;5019431;28;20060;-68
2022/01/14 08:21:23;;;;;;;32.22;17.88;;;6.30;99.90;;;;;;5018983;28;20084;-68
2022/01/14 08:23:49;;;;;;;40.22;18.70;;;6.30;99.90;;;;;;5023666;28;20052;-71
2022/01/14 08:26:15;;;;;;;34.15;17.13;;;6.30;99.90;;;;;;5059058;28;20049;-69
2022/01/14 08:28:41;;;;;;;33.17;18.17;;;6.40;99.90;;;;;;5056546;28;20040;-69
2022/01/14 08:31:06;;;;;;;37.58;18.02;;;6.40;99.90;;;;;;5044219;28;20066;-70
2022/01/14 08:33:32;;;;;;;34.42;16.98;;;6.40;99.90;;;;;;5051918;28;20445;-70
2022/01/14 08:35:58;;;;;;;39.05;17.30;;;6.40;99.90;;;;;;5038946;28;20091;-69
2022/01/14 08:38:24;;;;;;;32.47;16.63;;;6.40;99.90;;;;;;5039074;28;20067;-69
2022/01/14 08:40:50;;;;;;;35.15;16.02;;;6.40;99.90;;;;;;5058468;28;20147;-68
2022/01/14 08:43:15;;;;;;;27.08;15.32;;;6.40;99.90;;;;;;5076523;28;20049;-70
2022/01/14 08:45:41;;;;;;;33.97;15.95;;;6.50;99.90;;;;;;5058509;28;20040;-68
2022/01/14 08:48:07;;;;;;;29.27;15.45;;;6.50;99.90;;;;;;5059262;28;20487;-70
2022/01/14 08:50:35;;;;;;;34.08;15.25;;;6.60;99.90;;;;;;5059256;28;20051;-69
2022/01/14 08:53:02;;;;;;;35.15;15.82;;;6.60;99.90;;;;;;5059758;28;20048;-71
2022/01/14 08:55:28;;;;;;;32.53;15.10;;;6.60;99.90;;;;;;5059214;28;20052;-69
2022/01/14 08:57:55;;;;;;;28.10;14.70;;;6.60;99.90;;;;;;5059253;28;20461;-68
2022/01/14 09:00:24;;;;;;;29.30;15.40;;;6.70;99.90;;;;;;5041315;28;20075;-71
2022/01/14 09:02:54;;;;;;;27.92;14.43;;;6.70;99.90;;;;;;5027890;28;20060;-68
2022/01/14 09:05:21;;;;;;;29.90;14.20;;;6.70;99.90;;;;;;5037119;28;20107;-70
2022/01/14 09:07:48;;;;;;;32.83;13.77;;;6.80;99.90;;;;;;5038735;28;20079;-69
2022/01/14 09:10:14;;;;;;;23.02;13.05;;;6.80;99.90;;;;;;5039169;28;20052;-68
2022/01/14 09:12:40;;;;;;;25.85;12.57;;;6.80;99.90;;;;;;5038945;28;20140;-70
2022/01/14 09:15:07;;;;;;;26.60;13.13;;;6.90;99.90;;;;;;5057551;28;20044;-71
2022/01/14 09:17:32;;;;;;;27.80;11.55;;;6.90;99.90;;;;;;5038857;28;20088;-70
2022/01/14 09:19:58;;;;;;;27.83;11.80;;;6.90;99.90;;;;;;5039162;28;20089;-72
2022/01/14 09:22:27;;;;;;;25.15;11.30;;;7.00;99.90;;;;;;5056253;28;20041;-71
2022/01/14 09:24:56;;;;;;;24.33;11.10;;;7.00;99.90;;;;;;5038351;28;20053;-71
2022/01/14 09:27:22;;;;;;;22.70;10.38;;;7.00;99.90;;;;;;5056181;28;20124;-68
2022/01/14 09:29:48;;;;;;;25.98;10.38;;;7.10;99.90;;;;;;5038927;28;20124;-71
2022/01/14 09:32:13;;;;;;;23.83;10.07;;;7.10;99.90;;;;;;5056522;28;20045;-71
2022/01/14 09:34:39;;;;;;;23.58;10.30;;;7.10;99.90;;;;;;5038222;28;20048;-71
2022/01/14 09:37:04;;;;;;;22.60;9.38;;;7.20;99.90;;;;;;5056451;28;20377;-72
2022/01/14 09:39:32;;;;;;;23.17;9.18;;;7.20;99.90;;;;;;5038760;28;20094;-69
2022/01/14 09:41:59;;;;;;;23.30;8.40;;;7.20;99.90;;;;;;5038774;28;20045;-70
2022/01/14 09:44:24;;;;;;;21.60;8.80;;;7.20;99.90;;;;;;5056169;28;20059;-72
2022/01/14 09:46:51;;;;;;;20.23;8.07;;;7.30;99.90;;;;;;5056218;28;20049;-70
2022/01/14 09:49:17;;;;;;;24.63;8.65;;;7.30;99.90;;;;;;5038674;28;20081;-72
2022/01/14 09:51:43;;;;;;;18.45;8.40;;;7.40;99.90;;;;;;5056333;28;20090;-69
2022/01/14 09:54:11;;;;;;;23.83;8.57;;;7.40;99.90;;;;;;5038621;28;20044;-70
2022/01/14 09:56:41;;;;;;;24.05;7.63;;;7.50;99.90;;;;;;5038371;28;20045;-73
2022/01/14 09:59:07;;;;;;;24.23;8.68;;;7.50;99.90;;;;;;5036743;28;20376;-70
2022/01/14 10:01:44;;;;;;;21.50;7.82;;;7.50;99.90;;;;;;5017989;28;20041;-72
2022/01/14 10:04:16;;;;;;;22.58;7.82;;;7.50;99.90;;;;;;5018979;28;20057;-71
2022/01/14 10:06:47;;;;;;;18.92;7.00;;;7.60;99.90;;;;;;5035895;28;20458;-71
2022/01/14 10:09:19;;;;;;;17.58;6.35;;;7.60;99.90;;;;;;5018638;28;20366;-72
2022/01/14 10:11:58;;;;;;;17.63;6.82;;;7.60;99.90;;;;;;5035358;28;20057;-73
2022/01/14 10:14:24;;;;;;;17.27;7.32;;;7.70;99.90;;;;;;5018063;28;20053;-71
2022/01/14 10:16:58;;;;;;;17.70;7.50;;;7.70;99.90;;;;;;5017939;28;20054;-72
2022/01/14 10:19:32;;;;;;;23.23;7.30;;;7.70;99.90;;;;;;5035461;28;20059;-71
2022/01/14 10:21:58;;;;;;;21.77;6.57;;;7.80;99.90;;;;;;5035328;28;20085;-70
2022/01/14 10:24:27;;;;;;;16.20;6.53;;;7.80;99.90;;;;;;5018399;28;20085;-72
2022/01/14 10:26:57;;;;;;;17.90;6.70;;;7.80;99.90;;;;;;5035495;28;20362;-73
2022/01/14 10:29:30;;;;;;;20.05;6.30;;;7.80;99.90;;;;;;5037813;28;20355;-70
2022/01/14 10:31:56;;;;;;;18.50;6.68;;;7.90;99.90;;;;;;5035164;28;20136;-70
2022/01/14 10:34:22;;;;;;;16.00;6.53;;;7.80;99.90;;;;;;5018367;28;20581;-71
2022/01/14 10:36:50;;;;;;;14.27;6.00;;;7.90;99.90;;;;;;5041756;28;20128;-69
2022/01/14 10:39:24;;;;;;;17.92;5.95;;;7.90;99.90;;;;;;5034332;28;20049;-73
2022/01/14 10:41:52;;;;;;;18.65;6.28;;;7.90;99.90;;;;;;5040790;28;20118;-69
2022/01/14 10:44:30;;;;;;;17.67;5.75;;;7.90;99.90;;;;;;5034009;28;20088;-71
2022/01/14 10:47:13;;;;;;;19.60;5.15;;;7.90;99.90;;;;;;5034930;28;20428;-69
2022/01/14 10:49:39;;;;;;;20.30;5.27;;;7.90;99.90;;;;;;5035267;28;20041;-70
2022/01/14 10:52:36;;;;;;;15.02;5.10;;;7.90;99.90;;;;;;5023719;28;20069;-69
2022/01/14 10:55:03;;;;;;;14.27;4.90;;;7.90;99.90;;;;;;5025340;28;20049;-69
2022/01/14 10:57:32;;;;;;;15.98;5.03;;;7.90;99.90;;;;;;4993222;28;20057;-71
2022/01/14 11:00:15;;;;;;;18.90;4.88;;;7.90;99.90;;;;;;4995863;28;20129;-73
2022/01/14 11:02:45;;;;;;;15.40;4.82;;;7.90;99.90;;;;;;4996437;28;20161;-71
2022/01/14 11:05:19;;;;;;;12.25;4.75;;;8.00;99.90;;;;;;4996747;28;20129;-72
2022/01/14 11:07:47;;;;;;;17.02;4.90;;;7.90;99.90;;;;;;4999169;28;20062;-73
2022/01/14 11:10:25;;;;;;;17.92;4.90;;;7.90;99.90;;;;;;5013151;28;20041;-72
2022/01/14 11:12:55;;;;;;;14.82;4.63;;;7.90;99.90;;;;;;4978857;28;20053;-72
2022/01/14 11:15:23;;;;;;;14.35;5.13;;;7.90;99.90;;;;;;4995275;28;20062;-70
2022/01/14 11:17:51;;;;;;;14.35;4.30;;;7.90;99.90;;;;;;5012656;28;20509;-71
2022/01/14 11:20:25;;;;;;;11.90;4.28;;;7.90;99.90;;;;;;5012705;28;20237;-70
2022/01/14 11:25:39;;;;;;;17.65;4.35;;;8.00;99.90;;;;;;5012605;28;20446;-72
2022/01/14 11:28:06;;;;;;;17.75;4.53;;;7.90;99.90;;;;;;5026284;28;20119;-71
2022/01/14 11:30:37;;;;;;;14.00;4.57;;;7.90;99.90;;;;;;5053180;28;20382;-71
2022/01/14 11:33:03;;;;;;;16.38;4.53;;;7.90;99.90;;;;;;5053781;28;20472;-74
2022/01/14 11:35:31;;;;;;;16.17;4.72;;;8.00;99.90;;;;;;5033765;28;20072;-68
2022/01/14 11:37:57;;;;;;;21.75;4.97;;;8.00;99.90;;;;;;5035727;28;20196;-74
2022/01/14 11:40:23;;;;;;;15.15;4.70;;;8.00;99.90;;;;;;5033502;28;20057;-70
2022/01/14 11:42:58;;;;;;;16.85;4.35;;;8.00;99.90;;;;;;5033750;28;20053;-71
2022/01/14 11:45:45;;;;;;;16.25;4.20;;;8.00;99.90;;;;;;5000973;28;20353;-71
2022/01/14 11:48:35;;;;;;;20.55;4.63;;;8.10;99.90;;;;;;5025852;28;20131;-70
2022/01/14 11:51:10;;;;;;;15.88;4.45;;;8.10;99.90;;;;;;5028168;28;20128;-71
2022/01/14 11:53:49;;;;;;;14.38;6.10;;;8.10;99.90;;;;;;5029051;28;20045;-70
2022/01/14 11:56:30;;;;;;;15.98;4.93;;;8.10;99.90;;;;;;5024739;28;20062;-73
2022/01/14 11:59:18;;;;;;;20.02;5.22;;;8.10;99.90;;;;;;5039970;28;20045;-71
2022/01/14 12:01:45;;;;;;;18.17;5.68;;;8.10;99.90;;;;;;5047568;28;20061;-71
2022/01/14 12:04:11;;;;;;;14.75;4.95;;;8.10;99.90;;;;;;5057252;28;20071;-73
2022/01/14 12:06:53;;;;;;;19.38;4.72;;;8.10;99.90;;;;;;5057432;28;20041;-72
2022/01/14 12:09:21;;;;;;;13.40;4.68;;;8.10;99.90;;;;;;5049418;28;20504;-70
2022/01/14 12:12:22;;;;;;;16.50;4.97;;;8.10;99.90;;;;;;5037359;28;20055;-74
2022/01/14 12:14:56;;;;;;;15.10;4.80;;;8.10;99.90;;;;;;5036983;28;20057;-70
2022/01/14 12:17:42;;;;;;;21.42;5.55;;;8.20;99.90;;;;;;5024254;28;20053;-72
2022/01/14 12:20:13;;;;;;;23.80;5.90;;;8.20;99.90;;;;;;5036347;28;20045;-70
2022/01/14 12:22:39;;;;;;;19.67;5.00;;;8.10;99.90;;;;;;5048182;28;20049;-72
2022/01/14 12:25:06;;;;;;;16.73;5.25;;;8.20;99.90;;;;;;5056771;28;20059;-71
2022/01/14 12:27:43;;;;;;;27.75;5.72;;;8.10;99.90;;;;;;5056730;28;20053;-70
2022/01/14 12:30:14;;;;;;;18.08;5.00;;;8.10;99.90;;;;;;5023257;28;20055;-72
2022/01/14 12:32:42;;;;;;;16.23;5.10;;;8.20;99.90;;;;;;5057180;28;20037;-73
2022/01/14 12:35:13;;;;;;;15.77;5.07;;;8.10;99.90;;;;;;5055785;28;20041;-71
2022/01/14 12:37:46;;;;;;;20.02;5.97;;;8.10;99.90;;;;;;5056156;28;20088;-70
2022/01/14 12:40:17;;;;;;;21.15;6.28;;;8.10;99.90;;;;;;5056888;28;20112;-72
2022/01/14 12:42:58;;;;;;;30.90;7.45;;;8.10;99.90;;;;;;5056642;28;20049;-73
2022/01/14 12:45:34;;;;;;;21.83;5.95;;;8.10;99.90;;;;;;5056903;28;20051;-74
2022/01/14 12:48:17;;;;;;;20.75;6.45;;;8.10;99.90;;;;;;5057004;28;20037;-72
2022/01/14 12:50:45;;;;;;;22.15;5.88;;;8.10;99.90;;;;;;5056000;28;20037;-73
2022/01/14 12:53:15;;;;;;;25.98;7.00;;;8.10;99.90;;;;;;5055623;28;20066;-72
2022/01/14 12:55:41;;;;;;;29.00;9.65;;;8.10;99.90;;;;;;5056649;28;20045;-73
2022/01/14 12:58:07;;;;;;;24.92;7.50;;;8.10;99.90;;;;;;5056704;28;20419;-72
2022/01/14 13:00:33;;;;;;;24.98;6.45;;;8.10;99.90;;;;;;5052345;28;20079;-70
2022/01/14 13:02:59;;;;;;;17.63;5.63;;;8.10;99.90;;;;;;5036785;28;20049;-73
2022/01/14 13:05:26;;;;;;;17.77;5.60;;;8.10;99.90;;;;;;5043875;28;20044;-71
2022/01/14 13:07:51;;;;;;;17.10;5.75;;;8.10;99.90;;;;;;5056036;28;20699;-71
2022/01/14 13:10:18;;;;;;;13.20;5.88;;;8.30;99.90;;;;;;5056033;28;20041;-73
2022/01/14 13:12:45;;;;;;;17.60;5.93;;;8.10;99.90;;;;;;5035226;28;20049;-71
2022/01/14 13:15:17;;;;;;;21.60;5.43;;;8.10;99.90;;;;;;5051998;28;20080;-72